Time;durP1;ratioP1;P1;durP2;ratioP2;P2;SDS_P1;SDS_P2;PMS_P1;PMS_P2;Temp;Humidity;BMP_temperature;BMP_pressure;BME280_temperature;BME280_humidity;BME280_pressure;Samples;Min_cycle;Max_cycle;Signal;HPM_P1;HPM_P2
2023/12/19 00:01:51;;;;;;;5.05;2.30;;;5.50;99.90;;;;;;4875684;29;20091;-80
2023/12/19 00:04:17;;;;;;;7.43;2.53;;;5.60;99.90;;;;;;4893622;29;20044;-78
2023/12/19 00:06:42;;;;;;;5.28;2.58;;;5.80;99.90;;;;;;4893429;29;20044;-78
2023/12/19 00:09:08;;;;;;;4.85;2.45;;;5.70;99.90;;;;;;4893396;29;20043;-79
2023/12/19 00:11:34;;;;;;;5.78;2.92;;;5.60;99.90;;;;;;4893981;29;20646;-79
2023/12/19 00:14:00;;;;;;;4.63;2.25;;;5.70;99.90;;;;;;4894022;29;20150;-79
2023/12/19 00:16:26;;;;;;;5.05;2.05;;;5.60;99.90;;;;;;4892717;29;20040;-79
2023/12/19 00:18:51;;;;;;;3.92;1.95;;;5.50;99.90;;;;;;4896075;29;20191;-79
2023/12/19 00:21:17;;;;;;;4.00;1.83;;;5.50;99.90;;;;;;4897973;29;20048;-78
2023/12/19 00:23:42;;;;;;;5.40;2.50;;;5.50;99.90;;;;;;4877419;29;20656;-79
2023/12/19 00:26:11;;;;;;;4.88;2.08;;;5.70;99.90;;;;;;4900194;29;20446;-79
2023/12/19 00:28:37;;;;;;;5.18;2.30;;;5.70;99.90;;;;;;4899725;29;20577;-79
2023/12/19 00:31:02;;;;;;;4.55;2.60;;;5.50;99.90;;;;;;4900304;29;20024;-78
2023/12/19 00:33:28;;;;;;;5.95;2.33;;;5.50;99.90;;;;;;4899742;29;20040;-78
2023/12/19 00:35:54;;;;;;;5.03;1.80;;;5.50;99.90;;;;;;4899780;29;20091;-78
2023/12/19 00:38:20;;;;;;;7.72;2.20;;;5.30;99.90;;;;;;4898196;29;20044;-78
2023/12/19 00:40:46;;;;;;;4.50;2.30;;;5.50;99.90;;;;;;4898480;29;20046;-79
2023/12/19 00:43:12;;;;;;;5.00;2.67;;;5.50;99.90;;;;;;4901017;29;20035;-79
2023/12/19 00:45:37;;;;;;;5.40;2.55;;;5.30;99.90;;;;;;4900158;29;20507;-79
2023/12/19 00:48:04;;;;;;;4.75;2.55;;;5.50;99.90;;;;;;4898653;29;20044;-79
2023/12/19 00:50:29;;;;;;;4.85;2.17;;;5.90;99.90;;;;;;4900770;29;20051;-78
2023/12/19 00:52:55;;;;;;;6.13;2.35;;;5.90;99.80;;;;;;4900326;29;20020;-79
2023/12/19 00:55:21;;;;;;;5.57;2.53;;;6.00;99.90;;;;;;4900654;29;20115;-78
2023/12/19 00:57:46;;;;;;;5.00;2.53;;;6.00;99.90;;;;;;4883067;29;20044;-78
2023/12/19 01:00:13;;;;;;;5.50;2.45;;;6.00;99.90;;;;;;4900181;29;20096;-78
2023/12/19 01:02:38;;;;;;;7.22;2.50;;;5.80;99.90;;;;;;4900110;29;20036;-80
2023/12/19 01:05:04;;;;;;;3.67;2.03;;;5.80;99.90;;;;;;4900058;29;20039;-80
2023/12/19 01:07:30;;;;;;;4.22;2.20;;;5.60;99.90;;;;;;4899102;29;20032;-78
2023/12/19 01:09:56;;;;;;;5.70;2.42;;;6.00;99.90;;;;;;4900172;29;20043;-81
2023/12/19 01:12:21;;;;;;;5.28;2.22;;;6.00;99.70;;;;;;4901442;29;20063;-78
2023/12/19 01:14:47;;;;;;;5.07;2.30;;;5.80;99.90;;;;;;4899552;29;20032;-79
2023/12/19 01:17:12;;;;;;;4.78;2.03;;;5.50;99.90;;;;;;4899660;29;20052;-79
2023/12/19 01:19:38;;;;;;;5.47;2.67;;;5.60;99.90;;;;;;4901094;29;20071;-78
2023/12/19 01:22:04;;;;;;;4.43;2.50;;;6.10;99.80;;;;;;4900100;29;20033;-79
2023/12/19 01:24:30;;;;;;;4.20;2.40;;;6.10;99.60;;;;;;4899191;29;20502;-79
2023/12/19 01:26:56;;;;;;;6.20;2.38;;;6.10;99.50;;;;;;4897797;29;20119;-79
2023/12/19 01:29:22;;;;;;;6.93;2.22;;;6.30;99.30;;;;;;4898059;29;20720;-78
2023/12/19 01:31:48;;;;;;;6.13;2.67;;;6.10;99.50;;;;;;4899073;29;20055;-79
2023/12/19 01:34:14;;;;;;;6.95;2.35;;;6.00;99.60;;;;;;4899926;29;20380;-79
2023/12/19 01:36:41;;;;;;;4.50;2.00;;;5.80;99.90;;;;;;4896495;29;20040;-79
2023/12/19 01:39:07;;;;;;;4.78;2.35;;;5.80;99.80;;;;;;4898338;29;20028;-78
2023/12/19 01:41:33;;;;;;;4.25;1.95;;;5.50;99.90;;;;;;4898905;29;20040;-79
2023/12/19 01:43:59;;;;;;;5.22;2.40;;;5.20;99.90;;;;;;4898821;29;20098;-78
2023/12/19 01:46:25;;;;;;;3.63;1.80;;;5.60;99.90;;;;;;4897845;29;20077;-78
2023/12/19 01:48:51;;;;;;;3.30;1.90;;;5.60;99.90;;;;;;4898190;29;20040;-78
2023/12/19 01:51:18;;;;;;;5.72;2.33;;;5.50;99.90;;;;;;4898456;29;20063;-78
2023/12/19 01:53:47;;;;;;;9.48;2.47;;;5.50;99.90;;;;;;4898575;29;20043;-78
2023/12/19 01:56:14;;;;;;;5.15;2.45;;;5.40;99.90;;;;;;4899229;29;20064;-78
2023/12/19 01:58:40;;;;;;;8.55;2.80;;;5.60;99.90;;;;;;4898248;29;20040;-78
2023/12/19 02:01:06;;;;;;;5.65;2.72;;;5.70;99.90;;;;;;4897311;29;20094;-79
2023/12/19 02:03:33;;;;;;;7.90;2.47;;;5.80;99.80;;;;;;4900256;29;20040;-78
2023/12/19 02:06:00;;;;;;;7.05;3.00;;;5.50;99.90;;;;;;4898431;29;20040;-78
2023/12/19 02:08:28;;;;;;;6.00;1.90;;;5.30;99.90;;;;;;4897893;29;20052;-80
2023/12/19 02:10:54;;;;;;;4.45;2.35;;;5.20;99.90;;;;;;4899608;29;20635;-78
2023/12/19 02:13:21;;;;;;;6.15;2.30;;;5.10;99.90;;;;;;4898037;29;20032;-78
2023/12/19 02:15:50;;;;;;;4.88;1.92;;;4.80;99.90;;;;;;4897238;29;20118;-78
2023/12/19 02:18:20;;;;;;;4.03;2.03;;;4.90;99.90;;;;;;4897737;29;20039;-79
2023/12/19 02:20:46;;;;;;;6.47;2.63;;;4.80;99.90;;;;;;4898619;29;20062;-78
2023/12/19 02:23:12;;;;;;;5.15;1.92;;;5.00;99.90;;;;;;4898193;29;20091;-78
2023/12/19 02:25:39;;;;;;;4.47;2.15;;;5.10;99.90;;;;;;4897997;29;20050;-79
2023/12/19 02:28:05;;;;;;;6.05;2.55;;;5.00;99.90;;;;;;4898363;29;20060;-79
2023/12/19 02:30:31;;;;;;;4.75;2.33;;;4.80;99.90;;;;;;4896302;29;20043;-78
2023/12/19 02:32:58;;;;;;;4.38;2.17;;;4.70;99.90;;;;;;4897249;29;20028;-78
2023/12/19 02:35:24;;;;;;;5.45;2.55;;;4.80;99.90;;;;;;4899439;29;20028;-78
2023/12/19 02:37:50;;;;;;;4.13;2.20;;;5.50;99.90;;;;;;4895400;29;20091;-79
2023/12/19 02:40:16;;;;;;;4.05;2.13;;;5.60;99.90;;;;;;4897774;29;20044;-78
2023/12/19 02:42:42;;;;;;;4.75;2.30;;;5.60;99.90;;;;;;4898350;29;20032;-78
2023/12/19 02:45:10;;;;;;;6.72;3.30;;;5.30;99.90;;;;;;4897845;29;20071;-79
2023/12/19 02:47:36;;;;;;;4.50;2.15;;;4.90;99.90;;;;;;4897178;29;20410;-78
2023/12/19 02:50:02;;;;;;;8.82;3.30;;;5.40;99.90;;;;;;4899612;29;20051;-78
2023/12/19 02:52:28;;;;;;;6.70;2.83;;;5.30;99.90;;;;;;4898232;29;20399;-78
2023/12/19 02:54:53;;;;;;;4.70;2.00;;;5.10;99.90;;;;;;4898095;29;20028;-79
2023/12/19 02:57:19;;;;;;;4.43;2.03;;;5.00;99.90;;;;;;4898628;29;20056;-78
2023/12/19 02:59:45;;;;;;;4.10;1.58;;;4.90;99.90;;;;;;4897802;29;20050;-78
2023/12/19 03:02:10;;;;;;;4.38;1.90;;;5.00;99.90;;;;;;4898369;29;20123;-78
2023/12/19 03:04:38;;;;;;;3.45;1.85;;;5.10;99.90;;;;;;4896948;29;20043;-78
2023/12/19 03:07:04;;;;;;;3.53;1.75;;;5.00;99.90;;;;;;4898154;29;20176;-79
2023/12/19 03:09:30;;;;;;;4.60;1.70;;;5.00;99.90;;;;;;4898601;29;20465;-78
2023/12/19 03:12:02;;;;;;;3.60;1.83;;;5.30;99.90;;;;;;4897776;29;20094;-78
2023/12/19 03:14:28;;;;;;;3.45;1.60;;;5.50;99.90;;;;;;4895607;29;20172;-78
2023/12/19 03:16:53;;;;;;;6.40;2.05;;;5.30;99.90;;;;;;4895972;29;20039;-78
2023/12/19 03:19:19;;;;;;;6.00;2.13;;;5.10;99.90;;;;;;4897288;29;20064;-78
2023/12/19 03:21:45;;;;;;;4.45;2.10;;;5.40;99.90;;;;;;4897953;29;20036;-78
2023/12/19 03:24:10;;;;;;;4.75;2.13;;;5.40;99.90;;;;;;4895568;29;20035;-78
2023/12/19 03:26:36;;;;;;;7.07;2.05;;;5.40;99.90;;;;;;4897953;29;20087;-78
2023/12/19 03:29:01;;;;;;;4.63;1.88;;;5.30;99.90;;;;;;4897768;29;20070;-78
2023/12/19 03:31:27;;;;;;;4.50;1.85;;;5.30;99.90;;;;;;4895372;29;20111;-78
2023/12/19 03:33:53;;;;;;;5.43;1.90;;;5.30;99.90;;;;;;4897795;29;20111;-78
2023/12/19 03:36:18;;;;;;;3.70;1.77;;;5.20;99.90;;;;;;4895200;29;20038;-78
2023/12/19 03:38:44;;;;;;;5.13;1.75;;;5.00;99.90;;;;;;4895264;29;20075;-78
2023/12/19 03:41:10;;;;;;;4.47;2.10;;;4.90;99.90;;;;;;4897403;29;20028;-79
2023/12/19 03:43:36;;;;;;;3.30;1.50;;;4.90;99.90;;;;;;4896666;29;20514;-78
2023/12/19 03:46:04;;;;;;;4.32;1.58;;;4.90;99.90;;;;;;4895591;29;20047;-78
2023/12/19 03:48:30;;;;;;;4.53;2.03;;;4.80;99.90;;;;;;4894971;29;20135;-79
2023/12/19 03:50:56;;;;;;;7.13;2.17;;;4.60;99.90;;;;;;4895743;29;20521;-78
2023/12/19 03:53:22;;;;;;;3.88;1.80;;;4.50;99.90;;;;;;4896019;29;20065;-78
2023/12/19 03:55:48;;;;;;;3.72;1.50;;;4.50;99.90;;;;;;4898601;29;20435;-78
2023/12/19 03:58:14;;;;;;;3.65;1.75;;;4.40;99.90;;;;;;4896571;29;20478;-78
2023/12/19 04:00:39;;;;;;;3.70;1.52;;;4.40;99.90;;;;;;4895613;29;20039;-78
2023/12/19 04:03:05;;;;;;;4.50;1.80;;;4.60;99.90;;;;;;4894610;29;20044;-78
2023/12/19 04:05:30;;;;;;;4.72;2.03;;;4.70;99.90;;;;;;4891381;29;20043;-80
2023/12/19 04:07:56;;;;;;;3.97;2.00;;;4.60;99.90;;;;;;4891380;29;20040;-80
2023/12/19 04:10:22;;;;;;;4.18;1.75;;;4.80;99.90;;;;;;4894066;29;20103;-78
2023/12/19 04:12:48;;;;;;;3.38;1.77;;;4.70;99.90;;;;;;4893856;29;20028;-78
2023/12/19 04:15:13;;;;;;;4.38;2.17;;;5.10;99.90;;;;;;4893807;29;20036;-79
2023/12/19 04:17:39;;;;;;;5.43;2.47;;;5.50;99.90;;;;;;4891908;29;20082;-81
2023/12/19 04:20:05;;;;;;;4.75;2.15;;;5.60;99.90;;;;;;4891383;29;20064;-78
2023/12/19 04:22:31;;;;;;;2.97;1.63;;;5.50;99.90;;;;;;4890742;29;20734;-79
2023/12/19 04:24:57;;;;;;;4.80;2.63;;;5.60;99.90;;;;;;4895121;29;20545;-80
2023/12/19 04:27:22;;;;;;;7.20;2.28;;;5.60;99.80;;;;;;4891642;29;20102;-79
2023/12/19 04:29:50;;;;;;;4.18;1.85;;;5.40;99.90;;;;;;4890725;29;20550;-79
2023/12/19 04:32:15;;;;;;;4.50;2.25;;;5.00;99.90;;;;;;4892888;29;20032;-79
2023/12/19 04:34:41;;;;;;;4.70;1.98;;;5.00;99.90;;;;;;4892625;29;20475;-78
2023/12/19 04:37:07;;;;;;;3.40;1.73;;;5.10;99.90;;;;;;4891507;29;20072;-79
2023/12/19 04:39:33;;;;;;;3.95;1.73;;;5.10;99.90;;;;;;4890232;29;20052;-79
2023/12/19 04:41:59;;;;;;;4.25;2.30;;;5.00;99.90;;;;;;4893592;29;20044;-78
2023/12/19 04:44:25;;;;;;;4.03;1.88;;;4.80;99.90;;;;;;4893487;29;20160;-78
2023/12/19 04:46:51;;;;;;;4.05;1.75;;;5.20;99.90;;;;;;4892142;29;20157;-79
2023/12/19 04:49:16;;;;;;;5.22;2.00;;;5.10;99.90;;;;;;4892902;29;20080;-79
2023/12/19 04:51:42;;;;;;;3.80;1.70;;;5.00;99.90;;;;;;4891435;29;20036;-80
2023/12/19 04:54:08;;;;;;;5.40;2.45;;;5.20;99.90;;;;;;4895244;29;21474;-79
2023/12/19 04:56:37;;;;;;;3.78;1.85;;;5.30;99.90;;;;;;4893848;29;20036;-79
2023/12/19 04:59:04;;;;;;;3.40;1.52;;;5.60;99.80;;;;;;4890953;29;20073;-80
2023/12/19 05:01:29;;;;;;;5.15;1.48;;;5.40;99.80;;;;;;4892202;29;20036;-79
2023/12/19 05:03:55;;;;;;;3.83;1.75;;;5.30;99.90;;;;;;4890701;29;20413;-82
2023/12/19 05:06:20;;;;;;;3.00;1.50;;;5.10;99.90;;;;;;4873760;29;20491;-79
2023/12/19 05:08:46;;;;;;;3.63;1.50;;;4.90;99.90;;;;;;4892794;29;20042;-78
2023/12/19 05:11:12;;;;;;;3.15;1.70;;;4.80;99.90;;;;;;4895181;29;20538;-79
2023/12/19 05:13:38;;;;;;;4.80;1.90;;;5.20;99.90;;;;;;4894698;29;20032;-79
2023/12/19 05:16:13;;;;;;;2.92;1.38;;;5.10;99.90;;;;;;4895373;29;20040;-80
2023/12/19 05:18:41;;;;;;;3.88;1.52;;;4.60;99.90;;;;;;4895052;29;20130;-78
2023/12/19 05:21:07;;;;;;;4.60;1.90;;;4.10;99.90;;;;;;4876620;29;20758;-79
2023/12/19 05:23:35;;;;;;;3.53;1.40;;;4.10;99.90;;;;;;4894366;29;20040;-79
2023/12/19 05:26:01;;;;;;;3.88;1.70;;;4.30;99.90;;;;;;4896107;29;20043;-79
2023/12/19 05:28:27;;;;;;;4.13;1.85;;;5.00;99.90;;;;;;4893513;29;20035;-79
2023/12/19 05:30:56;;;;;;;5.43;2.40;;;4.70;99.90;;;;;;4888761;29;20091;-79
2023/12/19 05:33:26;;;;;;;5.47;2.80;;;4.20;99.90;;;;;;4893718;29;20123;-79
2023/12/19 05:35:52;;;;;;;5.82;2.78;;;3.80;99.90;;;;;;4894608;29;20035;-79
2023/12/19 05:38:18;;;;;;;5.15;2.42;;;3.70;99.90;;;;;;4893390;29;20036;-78
2023/12/19 05:40:45;;;;;;;3.25;1.60;;;3.50;99.90;;;;;;4893880;29;20143;-78
2023/12/19 05:43:11;;;;;;;3.53;1.55;;;4.00;99.90;;;;;;4893981;29;20062;-79
2023/12/19 05:45:37;;;;;;;2.90;1.23;;;4.50;99.90;;;;;;4893645;29;20032;-79
2023/12/19 05:48:03;;;;;;;3.10;1.45;;;4.50;99.90;;;;;;4890614;29;20043;-79
2023/12/19 05:50:28;;;;;;;3.83;1.45;;;4.70;99.90;;;;;;4896878;29;20047;-79
2023/12/19 05:52:54;;;;;;;3.90;1.75;;;5.10;99.90;;;;;;4891915;29;20059;-83
2023/12/19 05:55:21;;;;;;;4.55;1.75;;;5.30;99.90;;;;;;4894425;29;20495;-79
2023/12/19 05:57:47;;;;;;;3.10;1.63;;;5.20;99.90;;;;;;4896327;29;20139;-79
2023/12/19 06:00:15;;;;;;;3.40;1.52;;;5.20;99.90;;;;;;4893794;29;20051;-80
2023/12/19 06:02:41;;;;;;;6.05;1.70;;;5.20;99.90;;;;;;4894083;29;20127;-79
2023/12/19 06:05:07;;;;;;;4.63;1.67;;;5.10;99.90;;;;;;4895060;29;20115;-79
2023/12/19 06:07:41;;;;;;;3.88;1.90;;;5.10;99.90;;;;;;4893401;29;20043;-79
2023/12/19 06:10:11;;;;;;;3.55;1.40;;;5.20;99.90;;;;;;4893934;29;21135;-79
2023/12/19 06:12:38;;;;;;;3.72;1.55;;;5.10;99.90;;;;;;4892538;29;21348;-79
2023/12/19 06:15:08;;;;;;;3.35;1.70;;;5.10;99.90;;;;;;4895512;29;20044;-81
2023/12/19 06:17:34;;;;;;;4.00;1.45;;;5.20;99.90;;;;;;4892935;29;20040;-80
2023/12/19 06:20:00;;;;;;;4.32;2.00;;;5.20;99.90;;;;;;4894182;29;20146;-79
2023/12/19 06:22:26;;;;;;;5.38;2.40;;;5.10;99.90;;;;;;4892021;29;20036;-79
2023/12/19 06:24:51;;;;;;;5.15;1.77;;;4.80;99.90;;;;;;4893071;29;20044;-80
2023/12/19 06:27:17;;;;;;;5.05;2.35;;;4.90;99.90;;;;;;4885249;29;20047;-83
2023/12/19 06:29:43;;;;;;;3.95;1.67;;;5.00;99.90;;;;;;4895139;29;20936;-79
2023/12/19 06:32:10;;;;;;;5.47;1.48;;;4.70;99.90;;;;;;4896123;29;20036;-81
2023/12/19 06:34:36;;;;;;;4.18;1.83;;;4.50;99.90;;;;;;4893387;29;20044;-77
2023/12/19 06:37:02;;;;;;;4.63;2.10;;;4.40;99.90;;;;;;4889622;29;20043;-79
2023/12/19 06:39:28;;;;;;;6.82;1.88;;;4.20;99.90;;;;;;4892237;29;20410;-78
2023/12/19 06:41:53;;;;;;;4.43;2.05;;;4.10;99.90;;;;;;4891445;29;20044;-78
2023/12/19 06:44:19;;;;;;;4.93;2.22;;;3.90;99.90;;;;;;4883679;29;20052;-79
2023/12/19 06:46:49;;;;;;;8.73;3.60;;;4.00;99.90;;;;;;4887601;29;20033;-78
2023/12/19 06:49:22;;;;;;;6.85;3.50;;;3.80;99.90;;;;;;4885375;29;20578;-80
2023/12/19 06:51:49;;;;;;;6.05;2.75;;;3.70;99.90;;;;;;4893348;29;20039;-80
2023/12/19 06:54:14;;;;;;;9.43;3.65;;;3.60;99.90;;;;;;4892501;29;20090;-78
2023/12/19 06:56:40;;;;;;;5.35;2.35;;;3.60;99.90;;;;;;4892991;29;20045;-78
2023/12/19 06:59:06;;;;;;;4.45;2.22;;;3.70;99.90;;;;;;4888607;29;20091;-80
2023/12/19 07:01:32;;;;;;;8.60;3.30;;;3.50;99.90;;;;;;4893421;29;20040;-79
2023/12/19 07:03:58;;;;;;;10.68;3.95;;;3.40;99.90;;;;;;4890406;29;20623;-79
2023/12/19 07:06:25;;;;;;;8.02;4.13;;;3.40;99.90;;;;;;4891933;29;20636;-78
2023/12/19 07:08:50;;;;;;;4.65;2.00;;;3.40;99.90;;;;;;4892413;29;20040;-80
2023/12/19 07:11:16;;;;;;;5.45;2.30;;;4.10;99.90;;;;;;4891027;29;20044;-76
2023/12/19 07:13:43;;;;;;;3.75;1.95;;;4.70;99.90;;;;;;4891832;29;20055;-78
2023/12/19 07:16:17;;;;;;;4.57;2.20;;;4.90;99.90;;;;;;4889987;29;20044;-78
2023/12/19 07:18:43;;;;;;;3.28;1.52;;;5.10;99.90;;;;;;4890162;29;20060;-78
2023/12/19 07:21:23;;;;;;;3.15;1.55;;;5.20;99.90;;;;;;4891054;29;20108;-79
2023/12/19 07:23:50;;;;;;;3.28;1.90;;;5.30;99.90;;;;;;4890789;29;20047;-78
2023/12/19 07:26:23;;;;;;;5.32;1.88;;;5.20;99.90;;;;;;4892855;29;20115;-79
2023/12/19 07:28:51;;;;;;;3.10;1.58;;;4.90;99.90;;;;;;4891643;29;20040;-78
2023/12/19 07:31:27;;;;;;;3.53;1.30;;;5.00;99.90;;;;;;4890025;29;21144;-78
2023/12/19 07:33:58;;;;;;;3.25;1.65;;;5.10;99.90;;;;;;4888463;29;20032;-79
2023/12/19 07:36:28;;;;;;;3.80;1.75;;;5.20;99.90;;;;;;4890312;29;20071;-79
2023/12/19 07:38:54;;;;;;;2.85;1.52;;;5.20;99.90;;;;;;4893036;29;20048;-78
2023/12/19 07:41:21;;;;;;;2.83;1.38;;;5.00;99.90;;;;;;4892666;29;20266;-76
2023/12/19 07:43:46;;;;;;;3.47;1.45;;;4.80;99.90;;;;;;4891243;29;20043;-76
2023/12/19 07:46:14;;;;;;;5.85;2.17;;;4.90;99.90;;;;;;4890430;29;20048;-78
2023/12/19 07:48:39;;;;;;;5.10;2.22;;;4.70;99.90;;;;;;4891470;29;20044;-78
2023/12/19 07:51:06;;;;;;;5.05;2.42;;;4.30;99.90;;;;;;4891204;29;20503;-77
2023/12/19 07:53:31;;;;;;;4.00;1.75;;;4.20;99.90;;;;;;4890808;29;20067;-76
2023/12/19 07:56:03;;;;;;;4.43;2.05;;;4.10;99.90;;;;;;4888913;29;20123;-77
2023/12/19 07:58:30;;;;;;;4.82;2.10;;;4.10;99.90;;;;;;4890661;29;20036;-78
2023/12/19 08:00:56;;;;;;;5.60;2.60;;;4.10;99.90;;;;;;4893367;29;20511;-78
2023/12/19 08:03:28;;;;;;;4.70;2.08;;;4.30;99.90;;;;;;4888610;29;20115;-78
2023/12/19 08:05:56;;;;;;;3.75;2.00;;;4.40;99.90;;;;;;4890654;29;20037;-78
2023/12/19 08:08:23;;;;;;;5.30;2.00;;;4.60;99.90;;;;;;4890963;29;20535;-77
2023/12/19 08:10:49;;;;;;;3.83;1.83;;;4.30;99.90;;;;;;4894803;29;20047;-77
2023/12/19 08:13:15;;;;;;;4.47;1.73;;;4.10;99.90;;;;;;4892998;29;20036;-77
2023/12/19 08:15:41;;;;;;;6.80;2.00;;;4.00;99.90;;;;;;4892241;29;20579;-78
2023/12/19 08:18:10;;;;;;;6.97;2.47;;;3.90;99.90;;;;;;4891603;29;20067;-78
2023/12/19 08:20:35;;;;;;;5.07;2.67;;;3.80;99.90;;;;;;4893859;29;20044;-79
2023/12/19 08:23:02;;;;;;;4.55;1.85;;;3.70;99.90;;;;;;4891592;29;20036;-77
2023/12/19 08:25:28;;;;;;;4.93;1.90;;;3.90;99.90;;;;;;4891239;29;20527;-78
2023/12/19 08:27:53;;;;;;;4.35;2.30;;;4.10;99.90;;;;;;4889786;29;20118;-78
2023/12/19 08:30:19;;;;;;;5.40;2.03;;;4.00;99.90;;;;;;4888863;29;20038;-76
2023/12/19 08:32:45;;;;;;;6.07;2.45;;;4.60;99.90;;;;;;4889174;29;20035;-77
2023/12/19 08:35:11;;;;;;;4.05;2.13;;;4.80;99.90;;;;;;4889720;29;20878;-76
2023/12/19 08:37:36;;;;;;;5.10;2.60;;;5.10;99.90;;;;;;4890574;29;20561;-77
2023/12/19 08:40:03;;;;;;;4.90;2.28;;;5.20;99.90;;;;;;4892455;29;20127;-78
2023/12/19 08:42:30;;;;;;;4.55;2.15;;;5.10;99.90;;;;;;4891759;29;20036;-77
2023/12/19 08:44:56;;;;;;;4.40;1.85;;;5.10;99.90;;;;;;4893508;29;20405;-77
2023/12/19 08:47:25;;;;;;;3.30;1.70;;;5.60;99.90;;;;;;4897096;29;20041;-78
2023/12/19 08:49:54;;;;;;;3.72;1.70;;;5.40;99.50;;;;;;4896333;29;20542;-76
2023/12/19 08:52:21;;;;;;;4.75;1.80;;;5.40;99.50;;;;;;4896564;29;20048;-76
2023/12/19 08:54:47;;;;;;;3.47;1.60;;;5.40;99.50;;;;;;4896977;29;20021;-78
2023/12/19 08:57:14;;;;;;;5.45;1.52;;;5.40;99.40;;;;;;4896997;29;20048;-76
2023/12/19 08:59:40;;;;;;;3.75;1.70;;;5.40;99.40;;;;;;4896928;29;20898;-76
2023/12/19 09:02:06;;;;;;;6.75;2.33;;;5.70;98.80;;;;;;4899264;29;20040;-77
2023/12/19 09:04:32;;;;;;;5.72;3.10;;;5.50;99.40;;;;;;4900357;29;20051;-75
2023/12/19 09:06:58;;;;;;;5.15;2.35;;;4.80;99.90;;;;;;4896255;29;20147;-76
2023/12/19 09:09:24;;;;;;;4.68;2.67;;;4.70;99.90;;;;;;4897413;29;21312;-77
2023/12/19 09:11:50;;;;;;;4.60;1.90;;;5.10;99.90;;;;;;4898470;29;20112;-75
2023/12/19 09:14:17;;;;;;;5.45;2.58;;;5.50;99.30;;;;;;4896526;29;20029;-76
2023/12/19 09:16:43;;;;;;;5.93;1.90;;;5.50;99.20;;;;;;4896768;29;20036;-77
2023/12/19 09:19:09;;;;;;;3.75;1.98;;;5.50;99.40;;;;;;4898843;29;20062;-77
2023/12/19 09:21:35;;;;;;;4.45;1.70;;;5.60;99.00;;;;;;4896697;29;20594;-76
2023/12/19 09:24:00;;;;;;;6.53;2.00;;;5.40;99.50;;;;;;4893806;29;20036;-75
2023/12/19 09:26:27;;;;;;;4.28;1.52;;;5.20;99.90;;;;;;4894691;29;20032;-75
2023/12/19 09:28:55;;;;;;;3.67;1.83;;;6.00;99.90;;;;;;4894576;29;20040;-77
2023/12/19 09:31:21;;;;;;;4.43;1.60;;;5.70;99.40;;;;;;4897506;29;20050;-76
2023/12/19 09:33:47;;;;;;;5.35;1.67;;;5.60;99.30;;;;;;4896374;29;20032;-76
2023/12/19 09:36:21;;;;;;;5.35;1.90;;;5.50;99.70;;;;;;4896133;29;20557;-75
2023/12/19 09:38:47;;;;;;;3.88;1.45;;;5.30;99.90;;;;;;4894244;29;20062;-77
2023/12/19 09:41:13;;;;;;;5.45;1.98;;;5.10;99.90;;;;;;4895840;29;20040;-76
2023/12/19 09:43:40;;;;;;;3.85;1.70;;;5.00;99.90;;;;;;4894381;29;20495;-76
2023/12/19 09:46:07;;;;;;;6.72;1.80;;;4.90;99.90;;;;;;4891653;29;20044;-76
2023/12/19 09:48:35;;;;;;;3.80;1.77;;;4.80;99.90;;;;;;4892853;29;20652;-75
2023/12/19 09:51:02;;;;;;;4.10;1.70;;;4.90;99.90;;;;;;4893033;29;20063;-75
2023/12/19 09:53:33;;;;;;;4.28;1.77;;;4.90;99.90;;;;;;4894202;29;20032;-74
2023/12/19 09:56:00;;;;;;;4.10;2.20;;;5.00;99.90;;;;;;4892945;29;20103;-74
2023/12/19 09:58:29;;;;;;;4.60;1.70;;;4.90;99.90;;;;;;4896733;29;20032;-74
2023/12/19 10:00:59;;;;;;;5.63;2.08;;;4.80;99.90;;;;;;4895581;29;20036;-74
2023/12/19 10:03:28;;;;;;;5.43;1.55;;;4.80;99.90;;;;;;4893894;29;20071;-75
2023/12/19 10:05:56;;;;;;;5.15;2.17;;;4.70;99.90;;;;;;4896136;29;20051;-75
2023/12/19 10:08:21;;;;;;;3.58;1.55;;;4.90;99.90;;;;;;4895471;29;20032;-75
2023/12/19 10:10:55;;;;;;;2.78;1.20;;;5.40;99.70;;;;;;4894664;29;20047;-74
2023/12/19 10:13:29;;;;;;;3.83;1.58;;;5.30;99.90;;;;;;4892228;29;20055;-75
2023/12/19 10:16:09;;;;;;;3.35;1.70;;;5.20;99.90;;;;;;4896727;29;20044;-75
2023/12/19 10:18:39;;;;;;;2.83;1.50;;;5.80;98.80;;;;;;4876125;29;20056;-75
2023/12/19 10:21:08;;;;;;;3.90;1.90;;;5.80;99.20;;;;;;4895237;29;20131;-75
2023/12/19 10:23:43;;;;;;;5.38;2.05;;;5.50;99.60;;;;;;4891964;29;20724;-75
2023/12/19 10:26:10;;;;;;;6.10;2.78;;;5.40;99.90;;;;;;4894080;29;20074;-75
2023/12/19 10:28:37;;;;;;;9.35;3.63;;;5.40;99.70;;;;;;4895069;29;20063;-74
2023/12/19 10:31:15;;;;;;;5.97;2.35;;;5.40;99.90;;;;;;4895614;29;20055;-74
2023/12/19 10:33:46;;;;;;;4.45;2.20;;;5.30;99.90;;;;;;4895149;29;20043;-75
2023/12/19 10:36:26;;;;;;;4.13;1.60;;;5.20;99.90;;;;;;4894695;29;20035;-74
2023/12/19 10:38:56;;;;;;;5.97;2.50;;;5.40;99.70;;;;;;4893884;29;20126;-76
2023/12/19 10:41:27;;;;;;;6.95;1.73;;;5.50;99.70;;;;;;4896037;29;20046;-75
2023/12/19 10:43:57;;;;;;;2.90;1.45;;;5.40;99.90;;;;;;4895695;29;20119;-75
2023/12/19 10:46:28;;;;;;;4.28;2.60;;;5.40;99.90;;;;;;4894870;29;20248;-75
2023/12/19 10:48:55;;;;;;;3.97;1.70;;;5.60;99.80;;;;;;4888440;29;20040;-75
2023/12/19 10:51:32;;;;;;;5.47;3.00;;;6.30;98.60;;;;;;4896067;29;20155;-75
2023/12/19 10:54:06;;;;;;;14.77;9.23;;;6.50;99.30;;;;;;4893005;29;20036;-75
2023/12/19 10:56:52;;;;;;;10.23;6.80;;;6.50;99.60;;;;;;4897404;29;20043;-75
2023/12/19 10:59:31;;;;;;;16.00;9.18;;;6.40;99.80;;;;;;4894651;29;21174;-75
2023/12/19 11:02:03;;;;;;;24.13;16.77;;;6.30;99.90;;;;;;4893629;29;20091;-75
2023/12/19 11:04:37;;;;;;;28.48;24.45;;;6.30;99.90;;;;;;4876898;29;20063;-75
2023/12/19 11:07:08;;;;;;;33.40;27.75;;;6.50;99.90;;;;;;4894745;29;20372;-75
2023/12/19 11:09:36;;;;;;;20.55;17.10;;;6.60;99.90;;;;;;4895575;29;20264;-75
2023/12/19 11:12:02;;;;;;;15.43;10.80;;;6.80;99.90;;;;;;4894171;29;20044;-75
2023/12/19 11:14:28;;;;;;;10.48;6.72;;;6.80;99.80;;;;;;4894511;29;20051;-74
2023/12/19 11:17:19;;;;;;;8.48;5.18;;;6.80;99.10;;;;;;4895263;29;20056;-75
2023/12/19 11:19:59;;;;;;;4.00;2.15;;;7.00;99.00;;;;;;4847714;29;20087;-75
2023/12/19 11:22:31;;;;;;;5.22;2.33;;;7.10;98.40;;;;;;4875282;29;20123;-75
2023/12/19 11:25:29;;;;;;;9.60;2.65;;;7.20;99.10;;;;;;4876868;29;20040;-75
2023/12/19 11:28:05;;;;;;;8.00;3.17;;;7.10;99.20;;;;;;4876938;29;20376;-74
2023/12/19 11:30:32;;;;;;;9.90;4.80;;;7.50;99.90;;;;;;4874096;29;20499;-75
2023/12/19 11:32:58;;;;;;;7.30;3.63;;;7.90;99.00;;;;;;4874245;29;20495;-74
2023/12/19 11:35:28;;;;;;;9.02;5.43;;;7.70;99.00;;;;;;4873240;29;20060;-75
2023/12/19 11:38:14;;;;;;;6.32;4.15;;;7.90;99.10;;;;;;4874711;29;20135;-75
2023/12/19 11:40:45;;;;;;;6.00;3.15;;;7.80;98.20;;;;;;4875367;29;20040;-74
2023/12/19 11:43:31;;;;;;;6.05;2.80;;;7.70;98.30;;;;;;4873368;29;20132;-75
2023/12/19 11:46:03;;;;;;;5.50;3.88;;;7.70;98.40;;;;;;4875483;29;20059;-75
2023/12/19 11:48:49;;;;;;;5.88;2.55;;;7.80;98.90;;;;;;4873850;29;20044;-74
2023/12/19 11:51:50;;;;;;;7.10;4.13;;;7.80;98.10;;;;;;4872586;29;20063;-74
2023/12/19 11:54:17;;;;;;;4.93;2.70;;;7.90;98.20;;;;;;4875463;29;20028;-74
2023/12/19 11:56:44;;;;;;;5.60;2.25;;;8.00;98.40;;;;;;4872916;29;20595;-74
2023/12/19 11:59:11;;;;;;;5.10;2.72;;;7.90;98.00;;;;;;4873321;29;20040;-75
2023/12/19 12:01:44;;;;;;;8.35;2.70;;;7.90;97.80;;;;;;4875306;29;20040;-75
2023/12/19 12:04:10;;;;;;;4.43;2.33;;;8.00;97.60;;;;;;4874222;29;20040;-75
2023/12/19 12:06:41;;;;;;;6.57;2.25;;;7.90;98.30;;;;;;4873086;29;20110;-75
2023/12/19 12:09:07;;;;;;;6.22;2.20;;;8.10;98.40;;;;;;4874629;29;20037;-75
2023/12/19 12:11:51;;;;;;;5.72;2.10;;;8.20;97.40;;;;;;4874469;29;20051;-75
2023/12/19 12:14:16;;;;;;;8.02;2.58;;;8.20;97.70;;;;;;4876242;29;20047;-74
2023/12/19 12:16:42;;;;;;;6.32;3.55;;;8.10;97.90;;;;;;4873842;29;20036;-74
2023/12/19 12:19:16;;;;;;;5.00;2.20;;;8.30;97.80;;;;;;4881170;29;20470;-75
2023/12/19 12:21:46;;;;;;;7.40;2.83;;;8.40;98.40;;;;;;4896910;29;20490;-74
2023/12/19 12:24:25;;;;;;;5.03;2.75;;;8.50;97.70;;;;;;4897825;29;20376;-75
2023/12/19 12:26:51;;;;;;;12.82;8.77;;;8.70;97.80;;;;;;4897655;29;20032;-74
2023/12/19 12:29:19;;;;;;;6.68;3.97;;;8.70;97.40;;;;;;4895904;29;20044;-74
2023/12/19 12:31:46;;;;;;;6.20;2.75;;;8.60;97.40;;;;;;4898759;29;20039;-74
2023/12/19 12:34:12;;;;;;;8.25;4.80;;;8.50;97.40;;;;;;4897744;29;20043;-74
2023/12/19 12:36:38;;;;;;;6.90;3.03;;;8.40;97.60;;;;;;4896066;29;20035;-74
2023/12/19 12:39:04;;;;;;;4.72;2.25;;;8.40;97.40;;;;;;4895766;29;20059;-74
2023/12/19 12:41:30;;;;;;;3.67;2.00;;;8.40;97.30;;;;;;4898566;29;20035;-74
2023/12/19 12:43:56;;;;;;;6.40;2.80;;;8.30;97.30;;;;;;4895728;29;20470;-74
2023/12/19 12:46:24;;;;;;;4.05;2.13;;;8.40;97.50;;;;;;4866884;29;20036;-74
2023/12/19 12:48:53;;;;;;;4.43;2.85;;;8.50;97.70;;;;;;4878359;29;20511;-74
2023/12/19 12:51:23;;;;;;;4.72;2.20;;;8.90;97.30;;;;;;4896404;29;20047;-74
2023/12/19 12:53:56;;;;;;;5.13;2.22;;;8.90;97.00;;;;;;4896745;29;20498;-75
2023/12/19 12:56:27;;;;;;;4.47;2.50;;;8.70;97.20;;;;;;4895931;29;20031;-75
2023/12/19 12:58:59;;;;;;;5.30;2.05;;;8.60;96.90;;;;;;4894637;29;20142;-75